createdAt,value
2018-04-20T00:01:57.358Z,46.40
2018-04-20T00:04:24.806Z,45.80
2018-04-20T00:06:52.248Z,46.00
2018-04-20T00:09:19.681Z,46.30
2018-04-20T00:11:47.821Z,47.10
2018-04-20T00:14:15.301Z,46.70
2018-04-20T00:16:42.723Z,47.50
2018-04-20T00:19:10.184Z,47.60
2018-04-20T00:21:37.597Z,47.50
2018-04-20T00:24:05.032Z,48.50
2018-04-20T00:26:33.235Z,49.30
2018-04-20T00:29:00.658Z,49.10
2018-04-20T00:31:28.089Z,50.20
2018-04-20T00:33:55.537Z,50.20
2018-04-20T00:36:22.975Z,50.50
2018-04-20T00:38:50.411Z,51.40
2018-04-20T00:41:17.842Z,51.90
2018-04-20T00:43:46.080Z,52.90
2018-04-20T00:46:13.516Z,52.90
2018-04-20T00:48:40.956Z,53.40
2018-04-20T00:51:09.182Z,53.90
2018-04-20T00:53:48.602Z,53.90
2018-04-20T00:56:16.040Z,53.50
2018-04-20T00:58:43.478Z,54.30
2018-04-20T01:01:11.689Z,55.50
2018-04-20T01:03:39.184Z,55.50
2018-04-20T01:06:06.707Z,56.10
2018-04-20T01:08:34.152Z,56.00
2018-04-20T01:11:01.638Z,56.30
2018-04-20T01:13:29.062Z,56.80
2018-04-20T01:15:57.188Z,57.10
2018-04-20T01:18:24.624Z,57.40
2018-04-20T01:20:52.074Z,58.10
2018-04-20T01:23:19.550Z,58.50
2018-04-20T01:25:48.769Z,60.30
2018-04-20T01:28:16.168Z,60.30
2018-04-20T01:30:43.602Z,61.40
2018-04-20T01:33:11.799Z,64.90
2018-04-20T01:35:39.247Z,64.90
2018-04-20T01:38:06.758Z,67.00
2018-04-20T01:40:34.187Z,64.90
2018-04-20T01:43:01.640Z,67.90
2018-04-20T01:45:29.059Z,59.90
2018-04-20T01:47:57.257Z,60.10
2018-04-20T01:50:24.695Z,60.00
2018-04-20T01:52:52.898Z,66.90
2018-04-20T01:55:20.337Z,66.90
2018-04-20T01:57:48.157Z,67.20
2018-04-20T02:00:15.594Z,67.70
2018-04-20T02:02:43.043Z,67.90
2018-04-20T02:05:10.487Z,69.40
2018-04-20T02:07:37.923Z,69.80
2018-04-20T02:10:06.134Z,71.20
2018-04-20T02:12:33.563Z,71.20
2018-04-20T02:15:00.998Z,72.00
2018-04-20T02:17:28.559Z,73.20
2018-04-20T02:19:56.973Z,71.90
2018-04-20T02:22:24.472Z,67.10
2018-04-20T02:24:51.909Z,69.60
2018-04-20T02:27:19.360Z,71.30
2018-04-20T02:29:46.783Z,70.90
2018-04-20T02:32:14.995Z,69.20
2018-04-20T02:34:42.439Z,69.20
2018-04-20T02:37:09.884Z,69.40
2018-04-20T02:39:38.087Z,67.90
2018-04-20T02:42:05.540Z,67.90
2018-04-20T02:44:32.959Z,70.40
2018-04-20T02:47:00.428Z,70.80
2018-04-20T02:49:28.608Z,72.80
2018-04-20T02:51:56.049Z,72.70
2018-04-20T02:54:24.296Z,73.90
2018-04-20T02:56:51.727Z,73.90
2018-04-20T02:59:19.172Z,74.40
2018-04-20T03:01:46.595Z,75.50
2018-04-20T03:04:14.813Z,75.60
2018-04-20T03:06:42.232Z,75.60
2018-04-20T03:09:10.436Z,76.10
2018-04-20T03:11:37.867Z,76.00
2018-04-20T03:14:06.131Z,77.00
2018-04-20T03:16:33.608Z,77.00
2018-04-20T03:19:01.815Z,78.20
2018-04-20T03:21:29.292Z,78.00
2018-04-20T03:23:57.480Z,78.30
2018-04-20T03:26:25.015Z,78.10
2018-04-20T03:28:52.439Z,78.70
2018-04-20T03:31:19.867Z,79.40
2018-04-20T03:33:48.327Z,79.70
2018-04-20T03:36:15.772Z,78.70
2018-04-20T03:38:43.321Z,68.40
2018-04-20T03:41:10.751Z,71.70
2018-04-20T03:43:38.184Z,62.60
2018-04-20T03:46:05.623Z,74.70
2018-04-20T03:48:33.048Z,76.10
2018-04-20T03:51:00.484Z,75.30
2018-04-20T03:53:27.962Z,75.80
2018-04-20T03:55:55.384Z,76.70
2018-04-20T03:58:23.597Z,77.80
2018-04-20T04:00:51.797Z,77.40
2018-04-20T04:03:19.230Z,77.40
2018-04-20T04:05:46.687Z,77.80
2018-04-20T04:08:14.134Z,76.70
2018-04-20T04:10:41.572Z,74.40
2018-04-20T04:13:09.763Z,76.20
2018-04-20T04:15:37.213Z,76.20
2018-04-20T04:18:16.502Z,77.50
2018-04-20T04:20:44.874Z,77.50
2018-04-20T04:23:24.212Z,78.00
2018-04-20T04:26:03.574Z,77.50
2018-04-20T04:28:30.997Z,78.30
2018-04-20T04:30:58.535Z,78.30
2018-04-20T04:33:25.947Z,77.90
2018-04-20T04:35:54.148Z,78.40
2018-04-20T04:38:21.576Z,78.30
2018-04-20T04:40:49.007Z,78.30
2018-04-20T04:43:16.459Z,78.30
2018-04-20T04:45:43.878Z,78.40
2018-04-20T04:48:11.325Z,78.70
2018-04-20T04:50:39.516Z,79.10
2018-04-20T04:53:07.712Z,80.40
2018-04-20T04:55:35.186Z,80.30
2018-04-20T04:58:02.639Z,79.70
2018-04-20T05:00:30.083Z,79.60
2018-04-20T05:02:57.545Z,78.80
2018-04-20T05:05:24.979Z,78.50
2018-04-20T05:07:52.424Z,77.50
2018-04-20T05:10:19.923Z,78.70
2018-04-20T05:12:49.038Z,79.30
2018-04-20T05:15:16.574Z,79.30
2018-04-20T05:17:44.011Z,80.20
2018-04-20T05:20:11.464Z,80.20
2018-04-20T05:22:38.894Z,80.80
2018-04-20T05:25:07.099Z,80.30
2018-04-20T05:27:34.550Z,80.30
2018-04-20T05:30:02.071Z,79.10
2018-04-20T05:32:30.284Z,80.60
2018-04-20T05:34:57.711Z,80.60
2018-04-20T05:37:25.143Z,81.20
2018-04-20T05:39:52.637Z,81.60
2018-04-20T05:42:20.020Z,81.90
2018-04-20T05:44:48.393Z,82.10
2018-04-20T05:47:15.809Z,82.50
2018-04-20T05:49:43.240Z,82.80
2018-04-20T05:52:10.684Z,83.30
2018-04-20T05:54:38.124Z,81.40
2018-04-20T05:57:05.571Z,81.10
2018-04-20T05:59:33.774Z,82.80
2018-04-20T06:02:01.205Z,82.80
2018-04-20T06:04:28.630Z,81.90
2018-04-20T06:06:56.068Z,81.30
2018-04-20T06:09:23.512Z,80.40
2018-04-20T06:11:50.948Z,80.20
2018-04-20T06:14:18.401Z,80.40
2018-04-20T06:16:45.821Z,79.30
2018-04-20T06:19:13.271Z,78.70
2018-04-20T06:21:40.708Z,76.10
2018-04-20T06:24:08.152Z,76.10
2018-04-20T06:26:35.608Z,75.00
2018-04-20T06:29:03.812Z,72.20
2018-04-20T06:31:31.255Z,68.80
2018-04-20T06:33:58.697Z,66.40
2018-04-20T06:36:26.127Z,63.70
2018-04-20T06:38:53.619Z,59.20
2018-04-20T06:41:21.065Z,55.70
2018-04-20T06:43:48.742Z,51.70
2018-04-20T06:46:16.174Z,47.50
2018-04-20T06:48:43.608Z,43.70
2018-04-20T06:51:12.229Z,40.70
2018-04-20T06:53:39.786Z,40.70
2018-04-20T06:56:07.208Z,38.90
2018-04-20T06:58:35.401Z,38.20
2018-04-20T07:01:02.892Z,38.10
2018-04-20T07:03:30.352Z,38.20
2018-04-20T07:05:57.800Z,38.90
2018-04-20T07:08:25.245Z,38.00
2018-04-20T07:10:52.682Z,38.90
2018-04-20T07:13:20.863Z,37.80
2018-04-20T07:15:48.790Z,37.80
2018-04-20T07:18:16.215Z,36.60
2018-04-20T07:20:43.660Z,40.00
2018-04-20T07:23:11.111Z,38.10
2018-04-20T07:25:38.535Z,37.30
2018-04-20T07:28:06.763Z,37.10
2018-04-20T07:30:34.179Z,37.00
2018-04-20T07:33:01.641Z,38.30
2018-04-20T07:35:29.856Z,35.90
2018-04-20T07:37:57.300Z,35.90
2018-04-20T07:40:24.723Z,35.70
2018-04-20T07:42:52.949Z,35.80
2018-04-20T07:45:20.404Z,35.80
2018-04-20T07:47:48.784Z,36.10
2018-04-20T07:50:16.220Z,35.10
2018-04-20T07:52:43.700Z,35.50
2018-04-20T07:55:11.124Z,35.20
2018-04-20T07:57:38.561Z,35.00
2018-04-20T08:02:41.389Z,32.40
2018-04-20T08:05:08.820Z,32.30
2018-04-20T08:07:37.035Z,30.80
2018-04-20T08:10:04.454Z,30.80
2018-04-20T08:12:32.660Z,30.90
2018-04-20T08:15:00.851Z,30.90
2018-04-20T08:17:28.300Z,30.20
2018-04-20T08:19:55.737Z,29.90
2018-04-20T08:22:23.159Z,29.60
2018-04-20T08:24:50.603Z,28.50
2018-04-20T08:27:18.032Z,28.60
2018-04-20T08:29:45.479Z,27.00
2018-04-20T08:32:12.900Z,27.10
2018-04-20T08:34:41.560Z,27.50
2018-04-20T08:37:08.979Z,28.00
2018-04-20T08:39:36.415Z,26.30
2018-04-20T08:42:03.917Z,26.70
2018-04-20T08:44:31.287Z,27.00
2018-04-20T08:46:58.707Z,27.30
2018-04-20T08:49:26.153Z,27.20
2018-04-20T08:51:53.599Z,26.80
2018-04-20T08:54:21.801Z,26.10
2018-04-20T08:56:50.068Z,26.10
2018-04-20T08:59:17.512Z,25.00
2018-04-20T09:01:45.708Z,23.80
2018-04-20T09:04:13.184Z,23.70
2018-04-20T09:06:40.603Z,23.40
2018-04-20T09:09:08.048Z,23.40
2018-04-20T09:11:36.249Z,22.70
2018-04-20T09:14:03.681Z,22.60
2018-04-20T09:16:31.881Z,22.50
2018-04-20T09:18:59.337Z,22.50
2018-04-20T09:21:26.803Z,22.40
2018-04-20T09:23:54.268Z,21.50
2018-04-20T09:26:21.885Z,21.80
2018-04-20T09:28:50.076Z,20.80
2018-04-20T09:31:18.281Z,19.70
2018-04-20T09:33:46.503Z,19.60
2018-04-20T09:36:13.988Z,20.10
2018-04-20T09:38:41.431Z,20.00
2018-04-20T09:41:08.896Z,20.60
2018-04-20T09:43:37.089Z,19.90
2018-04-20T09:46:04.527Z,19.90
2018-04-20T09:48:32.739Z,20.00
2018-04-20T09:51:00.189Z,20.00
2018-04-20T09:53:27.612Z,19.50
2018-04-20T09:55:55.888Z,19.60
2018-04-20T09:58:24.088Z,20.60
2018-04-20T10:00:51.531Z,20.60
2018-04-20T10:03:19.898Z,20.30
2018-04-20T10:05:47.350Z,20.30
2018-04-20T10:08:15.495Z,19.90
2018-04-20T10:10:42.914Z,19.90
2018-04-20T10:13:10.356Z,19.40
2018-04-20T10:15:38.560Z,19.70
2018-04-20T10:18:05.985Z,19.60
2018-04-20T10:20:34.200Z,21.30
2018-04-20T10:23:01.640Z,21.30
2018-04-20T10:25:29.063Z,21.50
2018-04-20T10:27:57.277Z,21.30
2018-04-20T10:30:24.722Z,21.30
2018-04-20T10:32:52.312Z,22.80
2018-04-20T10:35:19.732Z,21.10
2018-04-20T10:37:47.172Z,20.30
2018-04-20T10:40:16.264Z,19.50
2018-04-20T10:42:44.082Z,18.90
2018-04-20T10:45:11.549Z,19.50
2018-04-20T10:47:38.972Z,19.10
2018-04-20T10:50:07.251Z,18.90
2018-04-20T10:52:35.135Z,18.90
2018-04-20T10:55:02.610Z,19.90
2018-04-20T10:57:30.047Z,20.60
2018-04-20T10:59:57.507Z,19.70
2018-04-20T11:02:24.989Z,20.00
2018-04-20T11:04:52.403Z,20.70
2018-04-20T11:07:19.841Z,19.60
2018-04-20T11:09:48.096Z,19.40
2018-04-20T11:12:15.513Z,19.40
2018-04-20T11:14:42.953Z,19.30
2018-04-20T11:17:10.397Z,19.10
2018-04-20T11:19:38.597Z,20.20
2018-04-20T11:22:06.024Z,20.10
2018-04-20T11:24:34.236Z,18.80
2018-04-20T11:27:01.726Z,18.80
2018-04-20T11:29:29.942Z,18.70
2018-04-20T11:31:58.143Z,18.60
2018-04-20T11:34:25.588Z,18.60
2018-04-20T11:36:53.040Z,18.00
2018-04-20T11:39:21.233Z,17.90
2018-04-20T11:41:49.477Z,17.90
2018-04-20T11:44:17.683Z,18.50
2018-04-20T11:47:02.011Z,18.50
2018-04-20T11:49:30.220Z,18.60
2018-04-20T11:51:57.651Z,18.60
2018-04-20T11:54:25.104Z,17.90
2018-04-20T11:56:53.296Z,18.40
2018-04-20T11:59:20.728Z,18.40
2018-04-20T12:01:49.861Z,18.70
2018-04-20T12:04:17.294Z,18.70
2018-04-20T12:06:46.759Z,17.80
2018-04-20T12:09:16.945Z,18.30
2018-04-20T12:11:44.359Z,17.80
2018-04-20T12:14:12.624Z,17.60
2018-04-20T12:16:40.063Z,17.50
2018-04-20T12:19:07.511Z,18.20
2018-04-20T12:21:34.945Z,18.20
2018-04-20T12:24:02.366Z,17.60
2018-04-20T12:26:30.664Z,18.10
2018-04-20T12:28:59.267Z,17.30
2018-04-20T12:31:26.709Z,17.30
2018-04-20T12:33:54.143Z,17.40
2018-04-20T12:36:22.356Z,18.70
2018-04-20T12:38:49.787Z,18.60
2018-04-20T12:41:18.036Z,17.20
2018-04-20T12:43:45.430Z,17.20
2018-04-20T12:46:12.865Z,17.00
2018-04-20T12:48:41.070Z,17.60
2018-04-20T12:51:08.508Z,17.50
2018-04-20T12:53:36.703Z,17.40
2018-04-20T12:56:04.136Z,17.30
2018-04-20T12:58:32.344Z,18.40
2018-04-20T13:00:59.830Z,18.40
2018-04-20T13:03:27.270Z,19.40
2018-04-20T13:05:54.703Z,18.90
2018-04-20T13:08:22.139Z,19.70
2018-04-20T13:10:51.892Z,19.50
2018-04-20T13:13:19.332Z,19.40
2018-04-20T13:15:46.755Z,19.30
2018-04-20T13:18:14.194Z,19.30
2018-04-20T13:20:41.640Z,21.00
2018-04-20T13:23:10.372Z,18.90
2018-04-20T13:25:38.634Z,18.10
2018-04-20T13:28:06.012Z,18.10
2018-04-20T13:30:33.440Z,17.90
2018-04-20T13:33:00.900Z,18.40
2018-04-20T13:35:28.856Z,19.50
2018-04-20T13:37:56.288Z,19.30
2018-04-20T13:40:23.730Z,20.10
2018-04-20T13:42:51.160Z,20.50
2018-04-20T13:45:18.598Z,20.30
2018-04-20T13:47:46.043Z,19.40
2018-04-20T13:50:13.488Z,19.90
2018-04-20T13:52:40.933Z,19.00
2018-04-20T13:55:08.351Z,19.00
2018-04-20T13:57:35.794Z,19.10
2018-04-20T14:00:03.991Z,19.10
2018-04-20T14:02:31.445Z,19.10
2018-04-20T14:04:59.636Z,19.70
2018-04-20T14:07:27.076Z,19.60
2018-04-20T14:09:55.280Z,20.20
2018-04-20T14:12:22.719Z,20.10
2018-04-20T14:14:50.225Z,19.30
2018-04-20T14:17:17.694Z,19.00
2018-04-20T14:19:45.148Z,21.40
2018-04-20T14:22:12.567Z,20.60
2018-04-20T14:24:40.008Z,20.50
2018-04-20T14:27:07.428Z,20.10
2018-04-20T14:29:34.863Z,19.90
2018-04-20T14:32:02.295Z,19.90
2018-04-20T14:34:29.769Z,19.80
2018-04-20T14:36:57.203Z,19.60
2018-04-20T14:39:24.644Z,20.10
2018-04-20T14:41:52.080Z,19.90
2018-04-20T14:44:20.283Z,20.40
2018-04-20T14:46:47.709Z,20.40
2018-04-20T14:49:15.153Z,20.90
2018-04-20T14:51:42.591Z,21.50
2018-04-20T14:54:10.102Z,19.50
2018-04-20T14:56:38.332Z,20.90
2018-04-20T14:59:05.752Z,20.90
2018-04-20T15:01:33.179Z,21.60
2018-04-20T15:04:01.384Z,21.50
2018-04-20T15:06:28.983Z,21.60
2018-04-20T15:08:56.654Z,20.90
2018-04-20T15:11:24.089Z,20.70
2018-04-20T15:14:01.627Z,21.50
2018-04-20T15:16:32.089Z,20.50
2018-04-20T15:19:00.312Z,20.70
2018-04-20T15:21:27.729Z,20.70
2018-04-20T15:23:56.616Z,21.40
2018-04-20T15:26:24.074Z,21.50
2018-04-20T15:28:51.495Z,23.10
2018-04-20T15:31:19.703Z,21.70
2018-04-20T15:33:47.128Z,21.60
2018-04-20T15:36:15.381Z,23.40
2018-04-20T15:38:42.759Z,23.30
2018-04-20T15:41:10.195Z,24.30
2018-04-20T15:43:37.633Z,23.70
2018-04-20T15:46:05.060Z,23.70
2018-04-20T15:48:32.516Z,24.10
2018-04-20T15:51:00.001Z,25.30
2018-04-20T15:53:27.456Z,26.50
2018-04-20T15:55:54.912Z,25.10
2018-04-20T15:58:23.202Z,26.90
2018-04-20T16:00:50.598Z,27.00
2018-04-20T16:03:18.867Z,28.80
2018-04-20T16:05:46.303Z,28.80
2018-04-20T16:08:13.738Z,28.70
2018-04-20T16:10:41.199Z,29.00
2018-04-20T16:13:08.668Z,28.80
2018-04-20T16:15:36.105Z,28.50
2018-04-20T16:18:03.548Z,29.50
2018-04-20T16:20:30.979Z,29.50
2018-04-20T16:22:59.182Z,30.90
2018-04-20T16:25:26.613Z,30.90
2018-04-20T16:27:54.815Z,31.20
2018-04-20T16:30:22.258Z,31.30
2018-04-20T16:32:50.359Z,32.50
2018-04-20T16:35:17.780Z,37.40
2018-04-20T16:37:45.983Z,33.20
2018-04-20T16:40:13.411Z,33.10
2018-04-20T16:42:41.633Z,34.30
2018-04-20T16:45:09.076Z,34.10
2018-04-20T16:47:36.519Z,33.70
2018-04-20T16:50:03.942Z,29.80
2018-04-20T16:52:31.382Z,38.00
2018-04-20T16:54:58.804Z,35.30
2018-04-20T16:57:26.243Z,35.40
2018-04-20T16:59:53.683Z,34.30
2018-04-20T17:02:21.882Z,34.80
2018-04-20T17:04:50.105Z,34.20
2018-04-20T17:07:17.574Z,38.00
2018-04-20T17:09:44.964Z,32.30
2018-04-20T17:12:13.155Z,35.70
2018-04-20T17:14:40.587Z,36.70
2018-04-20T17:17:08.886Z,36.10
2018-04-20T17:19:37.084Z,35.20
2018-04-20T17:22:04.508Z,35.10
2018-04-20T17:24:31.987Z,35.10
2018-04-20T17:26:59.444Z,34.20
2018-04-20T17:29:26.902Z,36.00
2018-04-20T17:31:54.311Z,35.10
2018-04-20T17:34:21.738Z,38.30
2018-04-20T17:36:50.100Z,36.00
2018-04-20T17:39:17.535Z,34.30
2018-04-20T17:41:44.990Z,35.30
2018-04-20T17:44:13.184Z,33.30
2018-04-20T17:46:40.616Z,33.30
2018-04-20T17:49:08.071Z,34.10
2018-04-20T17:51:35.511Z,34.60
2018-04-20T17:54:03.711Z,37.10
2018-04-20T17:56:31.152Z,37.00
2018-04-20T17:58:59.342Z,33.90
2018-04-20T18:01:26.791Z,33.80
2018-04-20T18:03:54.978Z,33.90
2018-04-20T18:06:22.423Z,33.80
2018-04-20T18:08:50.957Z,37.70
2018-04-20T18:11:18.392Z,37.60
2018-04-20T18:13:45.838Z,36.60
2018-04-20T18:16:13.271Z,37.90
2018-04-20T18:18:41.468Z,35.00
2018-04-20T18:21:08.931Z,34.90
2018-04-20T18:23:36.353Z,34.90
2018-04-20T18:26:03.784Z,34.80
2018-04-20T18:28:31.284Z,35.40
2018-04-20T18:30:59.479Z,38.60
2018-04-20T18:33:26.906Z,38.50
2018-04-20T18:35:55.112Z,37.40
2018-04-20T18:38:22.539Z,37.30
2018-04-20T18:40:50.273Z,40.90
2018-04-20T18:43:17.716Z,40.00
2018-04-20T18:45:45.164Z,39.40
2018-04-20T18:48:12.597Z,41.40
2018-04-20T18:50:40.791Z,41.60
2018-04-20T18:53:08.236Z,41.60
2018-04-20T18:55:35.674Z,40.50
2018-04-20T18:58:03.886Z,41.60
2018-04-20T19:00:32.324Z,41.60
2018-04-20T19:03:00.518Z,40.60
2018-04-20T19:05:27.945Z,40.60
2018-04-20T19:07:55.383Z,41.40
2018-04-20T19:10:22.820Z,41.50
2018-04-20T19:12:50.426Z,42.90
2018-04-20T19:15:18.643Z,43.20
2018-04-20T19:17:46.103Z,43.20
2018-04-20T19:20:13.531Z,43.60
2018-04-20T19:22:40.982Z,43.90
2018-04-20T19:25:08.401Z,43.10
2018-04-20T19:27:35.844Z,43.40
2018-04-20T19:30:03.286Z,43.80
2018-04-20T19:32:30.716Z,45.70
2018-04-20T19:34:58.903Z,45.70
2018-04-20T19:37:26.348Z,45.60
2018-04-20T19:39:54.557Z,46.30
2018-04-20T19:42:22.000Z,46.30
2018-04-20T19:44:50.440Z,46.70
2018-04-20T19:47:17.881Z,46.90
2018-04-20T19:49:45.338Z,46.80
2018-04-20T19:52:12.769Z,46.20
2018-04-20T19:54:40.213Z,45.40
2018-04-20T19:57:07.643Z,44.70
2018-04-20T19:59:35.895Z,44.20
2018-04-20T20:02:03.285Z,44.30
2018-04-20T20:04:30.818Z,45.10
2018-04-20T20:06:58.344Z,45.30
2018-04-20T20:09:25.767Z,45.70
2018-04-20T20:11:53.258Z,45.40
2018-04-20T20:14:21.407Z,44.70
2018-04-20T20:16:48.850Z,44.70
2018-04-20T20:19:16.280Z,45.70
2018-04-20T20:21:43.716Z,45.70
2018-04-20T20:24:11.149Z,46.10
2018-04-20T20:26:38.567Z,46.00
2018-04-20T20:29:06.773Z,46.60
2018-04-20T20:31:34.218Z,46.60
2018-04-20T20:34:01.639Z,46.30
2018-04-20T20:36:29.125Z,47.90
2018-04-20T20:38:57.320Z,48.40
2018-04-20T20:41:24.750Z,48.40
2018-04-20T20:43:52.948Z,48.70
2018-04-20T20:46:20.383Z,48.70
2018-04-20T20:48:48.578Z,48.80
2018-04-20T20:51:16.011Z,48.80
2018-04-20T20:53:43.449Z,48.70
2018-04-20T20:56:10.950Z,48.70
2018-04-20T20:58:38.388Z,49.00
2018-04-20T21:01:06.596Z,49.50
2018-04-20T21:03:34.026Z,49.60
2018-04-20T21:06:02.238Z,51.00
2018-04-20T21:08:29.664Z,51.10
2018-04-20T21:10:57.107Z,50.60
2018-04-20T21:13:25.305Z,50.90
2018-04-20T21:15:52.751Z,50.90
2018-04-20T21:18:20.931Z,52.00
2018-04-20T21:20:48.376Z,51.40
2018-04-20T21:23:16.571Z,51.20
2018-04-20T21:25:44.011Z,51.20
2018-04-20T21:28:12.215Z,52.30
2018-04-20T21:30:39.639Z,52.30
2018-04-20T21:33:07.844Z,52.40
2018-04-20T21:35:35.278Z,52.40
2018-04-20T21:38:02.719Z,52.70
2018-04-20T21:40:30.971Z,52.70
2018-04-20T21:42:58.412Z,52.70
2018-04-20T21:45:25.854Z,53.30
2018-04-20T21:47:53.289Z,53.50
2018-04-20T21:50:20.724Z,53.80
2018-04-20T21:52:48.936Z,54.20
2018-04-20T21:55:16.352Z,54.10
2018-04-20T21:57:43.786Z,54.30
2018-04-20T22:00:11.763Z,55.30
2018-04-20T22:02:39.200Z,54.80
2018-04-20T22:05:07.653Z,54.90
2018-04-20T22:07:35.091Z,55.70
2018-04-20T22:10:03.293Z,56.00
2018-04-20T22:12:30.719Z,56.00
2018-04-20T22:14:58.923Z,56.60
2018-04-20T22:17:26.367Z,56.50
2018-04-20T22:19:53.792Z,57.50
2018-04-20T22:22:21.244Z,55.80
2018-04-20T22:24:48.763Z,55.10
2018-04-20T22:27:16.171Z,55.10
2018-04-20T22:29:44.383Z,56.60
2018-04-20T22:32:11.884Z,56.50
2018-04-20T22:34:39.328Z,57.30
2018-04-20T22:37:06.772Z,56.00
2018-04-20T22:39:34.225Z,55.90
2018-04-20T22:42:01.684Z,56.10
2018-04-20T22:44:29.161Z,56.80
2018-04-20T22:46:56.600Z,56.40
2018-04-20T22:49:24.043Z,57.30
2018-04-20T22:51:51.515Z,57.10
2018-04-20T22:54:18.954Z,57.40
2018-04-20T22:56:46.395Z,57.60
2018-04-20T22:59:14.607Z,58.10
2018-04-20T23:01:42.067Z,58.10
2018-04-20T23:04:09.521Z,58.50
2018-04-20T23:06:36.959Z,58.70
2018-04-20T23:09:04.395Z,61.10
2018-04-20T23:11:32.608Z,62.50
2018-04-20T23:14:00.073Z,62.40
2018-04-20T23:16:27.510Z,61.90
2018-04-20T23:18:54.981Z,62.70
2018-04-20T23:21:22.423Z,63.30
2018-04-20T23:23:49.851Z,64.20
2018-04-20T23:26:17.280Z,65.70
2018-04-20T23:28:44.716Z,67.10
2018-04-20T23:31:12.175Z,69.00
2018-04-20T23:33:39.616Z,70.50
2018-04-20T23:36:07.104Z,70.60
2018-04-20T23:38:34.494Z,71.20
2018-04-20T23:41:02.704Z,74.30
2018-04-20T23:43:30.192Z,73.40
2018-04-20T23:45:57.641Z,75.80
2018-04-20T23:48:25.090Z,76.60
2018-04-20T23:50:52.537Z,76.90
2018-04-20T23:53:19.964Z,76.00
2018-04-20T23:55:48.169Z,76.60
2018-04-20T23:58:15.612Z,76.60
